Mermaid Express — H9PV — position and weather

sailwx.info

Track history (hours):
 
Tides and Currents Weather Stations Pressure Air Temp Water Temp Dewpoint Dewpoint Depression Visibility Wind Speed Wind Dir Waves Ship Positions

Mermaid Express

Last reported at 2014-Nov-14 21:30 UTC. Time now 2014-Nov-23 15:59 UTC.
Position N 29°21' W 094°43'.
Warning: this ship's position is 8 days out of date.

Length 179 m; draft 11.2 m.

Type: Tanker. MMSI: 352866000.

Date/timePositionNaut miles runAvg speedWind from/ knotsBaromVisibWave heightAir tempDewpointWater temp
2014-Nov-14 21:30N 29°21' W 094°43'8 8.6
2014-Nov-14 20:33N 29°26' W 094°50'9 9.3
2014-Nov-14 19:33N 29°34' W 094°55'9 8.6
2014-Nov-14 18:33N 29°42' W 094°60'6 6.0
2014-Nov-14 17:33N 29°46' W 095°05'4 0.1
2014-Nov-12 16:19N 29°44' W 095°08'0 0.0
2014-Nov-12 15:10N 29°44' W 095°08'0 0.0
2014-Nov-12 14:31N 29°44' W 095°08'0 0.0
2014-Nov-12 02:28N 29°44' W 095°08'0 0.0
2014-Nov-12 01:31N 29°44' W 095°08'0 0.0
2014-Nov-12 00:31N 29°44' W 095°08'0 0.0
2014-Nov-11 23:16N 29°44' W 095°08'0 0.0
2014-Nov-11 22:31N 29°44' W 095°08'0 0.0
2014-Nov-11 21:31N 29°44' W 095°08'0 0.0
2014-Nov-11 20:28N 29°44' W 095°08'0 0.0
2014-Nov-11 19:25N 29°44' W 095°08'0 0.0
2014-Nov-11 18:31N 29°44' W 095°08'0 0.0
2014-Nov-11 17:28N 29°44' W 095°08'0 0.0
2014-Nov-11 16:31N 29°44' W 095°08'0 0.0
2014-Nov-11 15:13N 29°44' W 095°08'0 0.0
2014-Nov-11 14:31N 29°44' W 095°08'0 0.0
2014-Nov-11 13:25N 29°44' W 095°08'0 0.0
2014-Nov-11 11:31N 29°44' W 095°08'0 0.0
2014-Nov-11 10:19N 29°44' W 095°08'0 0.0
2014-Nov-11 07:25N 29°44' W 095°08'0 0.0
2014-Nov-11 00:31N 29°44' W 095°08'0 0.0
2014-Nov-10 23:19N 29°44' W 095°08'0 0.0
2014-Nov-10 22:16N 29°44' W 095°08'0 0.0
2014-Nov-10 21:19N 29°44' W 095°08'0 0.0
2014-Nov-10 20:13N 29°44' W 095°08'0 0.0
2014-Nov-10 19:13N 29°44' W 095°08'0 0.0
2014-Nov-10 18:28N 29°44' W 095°08'0 0.0
2014-Nov-10 17:31N 29°44' W 095°08'0 0.0
2014-Nov-10 16:31N 29°44' W 095°08'0 0.0
2014-Nov-10 15:31N 29°44' W 095°08'0 0.0
2014-Nov-10 14:31N 29°44' W 095°08'0 0.0
2014-Nov-10 13:31N 29°44' W 095°08'0 0.0
2014-Nov-10 12:32N 29°44' W 095°08'2 2.1
2014-Nov-10 11:33N 29°45' W 095°06'6 5.6
2014-Nov-10 10:33N 29°42' W 095°00'1110.9
2014-Nov-10 09:33N 29°33' W 094°54'  
Track history (hours):
 
Tides and Currents Weather Stations Pressure Air Temp Water Temp Dewpoint Dewpoint Depression Visibility Wind Speed Wind Dir Waves Ship Positions

Mermaid Express

Last reported at 2014-Nov-14 21:30 UTC. Time now 2014-Nov-23 15:59 UTC.
Position N 29°21' W 094°43'.
Warning: this ship's position is 8 days out of date.

Length 179 m; draft 11.2 m.

Type: Tanker. MMSI: 352866000.

Date/timePositionNaut miles runAvg speedWind from/ knotsBaromVisibWave heightAir tempDewpointWater temp
2014-Nov-14 21:30N 29°21' W 094°43'8 8.6
2014-Nov-14 20:33N 29°26' W 094°50'9 9.3
2014-Nov-14 19:33N 29°34' W 094°55'9 8.6
2014-Nov-14 18:33N 29°42' W 094°60'6 6.0
2014-Nov-14 17:33N 29°46' W 095°05'4 0.1
2014-Nov-12 16:19N 29°44' W 095°08'0 0.0
2014-Nov-12 15:10N 29°44' W 095°08'0 0.0
2014-Nov-12 14:31N 29°44' W 095°08'0 0.0
2014-Nov-12 02:28N 29°44' W 095°08'0 0.0
2014-Nov-12 01:31N 29°44' W 095°08'0 0.0
2014-Nov-12 00:31N 29°44' W 095°08'0 0.0
2014-Nov-11 23:16N 29°44' W 095°08'0 0.0
2014-Nov-11 22:31N 29°44' W 095°08'0 0.0
2014-Nov-11 21:31N 29°44' W 095°08'0 0.0
2014-Nov-11 20:28N 29°44' W 095°08'0 0.0
2014-Nov-11 19:25N 29°44' W 095°08'0 0.0
2014-Nov-11 18:31N 29°44' W 095°08'0 0.0
2014-Nov-11 17:28N 29°44' W 095°08'0 0.0
2014-Nov-11 16:31N 29°44' W 095°08'0 0.0
2014-Nov-11 15:13N 29°44' W 095°08'0 0.0
2014-Nov-11 14:31N 29°44' W 095°08'0 0.0
2014-Nov-11 13:25N 29°44' W 095°08'0 0.0
2014-Nov-11 11:31N 29°44' W 095°08'0 0.0
2014-Nov-11 10:19N 29°44' W 095°08'0 0.0
2014-Nov-11 07:25N 29°44' W 095°08'0 0.0
2014-Nov-11 00:31N 29°44' W 095°08'0 0.0
2014-Nov-10 23:19N 29°44' W 095°08'0 0.0
2014-Nov-10 22:16N 29°44' W 095°08'0 0.0
2014-Nov-10 21:19N 29°44' W 095°08'0 0.0
2014-Nov-10 20:13N 29°44' W 095°08'0 0.0
2014-Nov-10 19:13N 29°44' W 095°08'0 0.0
2014-Nov-10 18:28N 29°44' W 095°08'0 0.0
2014-Nov-10 17:31N 29°44' W 095°08'0 0.0
2014-Nov-10 16:31N 29°44' W 095°08'0 0.0
2014-Nov-10 15:31N 29°44' W 095°08'0 0.0
2014-Nov-10 14:31N 29°44' W 095°08'0 0.0
2014-Nov-10 13:31N 29°44' W 095°08'0 0.0
2014-Nov-10 12:32N 29°44' W 095°08'2 2.1
2014-Nov-10 11:33N 29°45' W 095°06'6 5.6
2014-Nov-10 10:33N 29°42' W 095°00'1110.9
2014-Nov-10 09:33N 29°33' W 094°54'  

Dump ship's entire track history